PWSweather.com
Personal Weather Stations
Station Observations
KTXPLANO60
Highlands Of Russell Park, Plano, TX 75025

Highlands Of Russell ParkPlano, TX 75025

Lat: 33.10431671, Lon: -96.75176239

Elevation: 761

Station Type: Davis Wireless VP2 Plus

http://www.planoweather.com

Latest ConditionsUpdated 8:50:09 AM CDT Saturday, Nov 1, 2014
Currently Today's Max Today's Min Today's Average
Temperature 40.9°F4.9°C 46.7°F8.2°C 37.9°F3.3°C 40.7°F4.8°C
Dew Point 32.2°F0.1°C 32.4°F0.2°C 30.7°F-0.7°C 31.4°F-0.3°C
Winds 6.3 mph E10.1 kmh E 6.9 mph NNE11.1 kmh NNE - 4.1 mph 6.6 kmh
Wind Gusts 10.0 mph16.1 kmh 10.0 mph16.1 kmh - -
Humidity 71% 76% 57% 69%
Pressure 30.40 in1029.5 mb 30.40 in1029.5 mb 30.32 in1026.8 mb -
Hour Temp Dew Point Humidity Winds Wind Gusts Pressure Precip Precip Rate Daily Precip Total
08:50 AM 40.9°F4.9°C 32.2°F0.1°C 71% 6.3 mph E10.1 kmh E 10.0 mph16.1 kmh 30.40 in1029.5 mb 0.00 in0.0 mm 0.00 in/hr0.0 mm/hr 0.00 in0.0 mm
08:40 AM 39.7°F4.3°C 31.7°F-0.2°C 73% 3.9 mph ENE6.3 kmh ENE 5.0 mph8.0 kmh 30.40 in1029.5 mb 0.00 in0.0 mm 0.00 in/hr0.0 mm/hr 0.00 in0.0 mm
08:30 AM 38.8°F3.8°C 31.6°F-0.2°C 75% 4.8 mph ENE7.7 kmh ENE 7.0 mph11.3 kmh 30.40 in1029.5 mb 0.00 in0.0 mm 0.00 in/hr0.0 mm/hr 0.00 in0.0 mm
08:20 AM 38.1°F3.4°C 31.2°F-0.4°C 76% 4.9 mph ENE7.9 kmh ENE 7.0 mph11.3 kmh 30.40 in1029.5 mb 0.00 in0.0 mm 0.00 in/hr0.0 mm/hr 0.00 in0.0 mm
08:10 AM 38.0°F3.3°C 30.8°F-0.7°C 75% 4.0 mph ENE6.4 kmh ENE 5.0 mph8.0 kmh 30.39 in1029.1 mb 0.00 in0.0 mm 0.00 in/hr0.0 mm/hr 0.00 in0.0 mm
08:00 AM 37.9°F3.3°C 31.0°F-0.6°C 76% 5.1 mph ENE8.2 kmh ENE 7.0 mph11.3 kmh 30.39 in1029.1 mb 0.00 in0.0 mm 0.00 in/hr0.0 mm/hr 0.00 in0.0 mm
07:50 AM 37.9°F3.3°C 31.0°F-0.6°C 76% 4.2 mph ENE6.8 kmh ENE 7.0 mph11.3 kmh 30.39 in1029.1 mb 0.00 in0.0 mm 0.00 in/hr0.0 mm/hr 0.00 in0.0 mm
07:40 AM 38.0°F3.3°C 30.7°F-0.7°C 75% 4.7 mph ENE7.6 kmh ENE 6.0 mph9.7 kmh 30.39 in1029.1 mb 0.00 in0.0 mm 0.00 in/hr0.0 mm/hr 0.00 in0.0 mm
07:30 AM 38.1°F3.4°C 30.9°F-0.6°C 75% 3.8 mph NE6.1 kmh NE 4.0 mph6.4 kmh 30.38 in1028.8 mb 0.00 in0.0 mm 0.00 in/hr0.0 mm/hr 0.00 in0.0 mm
07:20 AM 38.2°F3.4°C 30.9°F-0.6°C 75% 5.0 mph NE8.0 kmh NE 6.0 mph9.7 kmh 30.38 in1028.8 mb 0.00 in0.0 mm 0.00 in/hr0.0 mm/hr 0.00 in0.0 mm
07:10 AM 38.1°F3.4°C 30.9°F-0.6°C 75% 4.2 mph NE6.8 kmh NE 6.0 mph9.7 kmh 30.38 in1028.8 mb 0.00 in0.0 mm 0.00 in/hr0.0 mm/hr 0.00 in0.0 mm
07:00 AM 38.2°F3.4°C 31.0°F-0.6°C 75% 5.8 mph NE9.3 kmh NE 8.0 mph12.9 kmh 30.37 in1028.4 mb 0.00 in0.0 mm 0.00 in/hr0.0 mm/hr 0.00 in0.0 mm
06:50 AM 38.1°F3.4°C 30.9°F-0.6°C 75% 4.2 mph NE6.8 kmh NE 7.0 mph11.3 kmh 30.37 in1028.4 mb 0.00 in0.0 mm 0.00 in/hr0.0 mm/hr 0.00 in0.0 mm
06:40 AM 38.0°F3.3°C 30.8°F-0.7°C 75% 3.1 mph NE5.0 kmh NE 4.0 mph6.4 kmh 30.37 in1028.4 mb 0.00 in0.0 mm 0.00 in/hr0.0 mm/hr 0.00 in0.0 mm
06:30 AM 38.2°F3.4°C 31.0°F-0.6°C 75% 2.4 mph NE3.9 kmh NE 3.0 mph4.8 kmh 30.37 in1028.4 mb 0.00 in0.0 mm 0.00 in/hr0.0 mm/hr 0.00 in0.0 mm
06:20 AM 38.4°F3.6°C 30.8°F-0.7°C 74% 0.3 mph NE0.5 kmh NE 3.0 mph4.8 kmh 30.36 in1028.1 mb 0.00 in0.0 mm 0.00 in/hr0.0 mm/hr 0.00 in0.0 mm
06:10 AM 38.6°F3.7°C 31.0°F-0.6°C 74% 2.5 mph NE4.0 kmh NE 2.0 mph3.2 kmh 30.36 in1028.1 mb 0.00 in0.0 mm 0.00 in/hr0.0 mm/hr 0.00 in0.0 mm
06:00 AM 38.7°F3.7°C 31.1°F-0.5°C 74% 1.8 mph NE2.9 kmh NE 3.0 mph4.8 kmh 30.35 in1027.8 mb 0.00 in0.0 mm 0.00 in/hr0.0 mm/hr 0.00 in0.0 mm
05:50 AM 38.8°F3.8°C 31.2°F-0.4°C 74% 3.5 mph NE5.6 kmh NE 5.0 mph8.0 kmh 30.35 in1027.8 mb 0.00 in0.0 mm 0.00 in/hr0.0 mm/hr 0.00 in0.0 mm
05:40 AM 38.9°F3.8°C 31.0°F-0.6°C 73% 4.0 mph NE6.4 kmh NE 7.0 mph11.3 kmh 30.34 in1027.4 mb 0.00 in0.0 mm 0.00 in/hr0.0 mm/hr 0.00 in0.0 mm
05:30 AM 39.0°F3.9°C 31.1°F-0.5°C 73% 3.9 mph NE6.3 kmh NE 7.0 mph11.3 kmh 30.34 in1027.4 mb 0.00 in0.0 mm 0.00 in/hr0.0 mm/hr 0.00 in0.0 mm
05:20 AM 39.1°F3.9°C 31.2°F-0.4°C 73% 2.8 mph NE4.5 kmh NE 6.0 mph9.7 kmh 30.34 in1027.4 mb 0.00 in0.0 mm 0.00 in/hr0.0 mm/hr 0.00 in0.0 mm
05:10 AM 39.1°F3.9°C 31.2°F-0.4°C 73% 2.9 mph NE4.7 kmh NE 6.0 mph9.7 kmh 30.34 in1027.4 mb 0.00 in0.0 mm 0.00 in/hr0.0 mm/hr 0.00 in0.0 mm
05:00 AM 39.2°F4.0°C 31.3°F-0.4°C 73% 2.9 mph NNE4.7 kmh NNE 5.0 mph8.0 kmh 30.34 in1027.4 mb 0.00 in0.0 mm 0.00 in/hr0.0 mm/hr 0.00 in0.0 mm
04:50 AM 39.3°F4.1°C 31.0°F-0.6°C 72% 2.6 mph NNE4.2 kmh NNE 5.0 mph8.0 kmh 30.34 in1027.4 mb 0.00 in0.0 mm 0.00 in/hr0.0 mm/hr 0.00 in0.0 mm
04:40 AM 39.3°F4.1°C 31.0°F-0.6°C 72% 2.8 mph NNE4.5 kmh NNE 4.0 mph6.4 kmh 30.34 in1027.4 mb 0.00 in0.0 mm 0.00 in/hr0.0 mm/hr 0.00 in0.0 mm
04:30 AM 39.4°F4.1°C 31.1°F-0.5°C 72% 2.4 mph NNE3.9 kmh NNE 3.0 mph4.8 kmh 30.33 in1027.1 mb 0.00 in0.0 mm 0.00 in/hr0.0 mm/hr 0.00 in0.0 mm
04:20 AM 39.6°F4.2°C 31.3°F-0.4°C 72% 2.6 mph NNE4.2 kmh NNE 5.0 mph8.0 kmh 30.33 in1027.1 mb 0.00 in0.0 mm 0.00 in/hr0.0 mm/hr 0.00 in0.0 mm
04:10 AM 39.8°F4.3°C 31.2°F-0.4°C 71% 2.9 mph NNE4.7 kmh NNE 5.0 mph8.0 kmh 30.33 in1027.1 mb 0.00 in0.0 mm 0.00 in/hr0.0 mm/hr 0.00 in0.0 mm
04:00 AM 40.0°F4.4°C 31.0°F-0.6°C 70% 3.0 mph NNE4.8 kmh NNE 4.0 mph6.4 kmh 30.33 in1027.1 mb 0.00 in0.0 mm 0.00 in/hr0.0 mm/hr 0.00 in0.0 mm
03:50 AM 40.3°F4.6°C 31.3°F-0.4°C 70% 3.9 mph NNE6.3 kmh NNE 6.0 mph9.7 kmh 30.33 in1027.1 mb 0.00 in0.0 mm 0.00 in/hr0.0 mm/hr 0.00 in0.0 mm
03:40 AM 40.4°F4.7°C 31.4°F-0.3°C 70% 4.0 mph NNE6.4 kmh NNE 8.0 mph12.9 kmh 30.33 in1027.1 mb 0.00 in0.0 mm 0.00 in/hr0.0 mm/hr 0.00 in0.0 mm
03:30 AM 40.6°F4.8°C 31.6°F-0.2°C 70% 3.6 mph NNE5.8 kmh NNE 4.0 mph6.4 kmh 30.33 in1027.1 mb 0.00 in0.0 mm 0.00 in/hr0.0 mm/hr 0.00 in0.0 mm
03:20 AM 40.8°F4.9°C 31.4°F-0.3°C 69% 3.4 mph NNE5.5 kmh NNE 7.0 mph11.3 kmh 30.33 in1027.1 mb 0.00 in0.0 mm 0.00 in/hr0.0 mm/hr 0.00 in0.0 mm
03:10 AM 41.0°F5.0°C 31.6°F-0.2°C 69% 5.0 mph NNE8.0 kmh NNE 6.0 mph9.7 kmh 30.33 in1027.1 mb 0.00 in0.0 mm 0.00 in/hr0.0 mm/hr 0.00 in0.0 mm
03:00 AM 41.2°F5.1°C 31.4°F-0.3°C 68% 4.2 mph NNE6.8 kmh NNE 6.0 mph9.7 kmh 30.33 in1027.1 mb 0.00 in0.0 mm 0.00 in/hr0.0 mm/hr 0.00 in0.0 mm
02:50 AM 41.4°F5.2°C 31.6°F-0.2°C 68% 5.0 mph NNE8.0 kmh NNE 7.0 mph11.3 kmh 30.33 in1027.1 mb 0.00 in0.0 mm 0.00 in/hr0.0 mm/hr 0.00 in0.0 mm
02:40 AM 41.7°F5.4°C 31.5°F-0.3°C 67% 4.3 mph NNE6.9 kmh NNE 7.0 mph11.3 kmh 30.33 in1027.1 mb 0.00 in0.0 mm 0.00 in/hr0.0 mm/hr 0.00 in0.0 mm
02:30 AM 42.0°F5.6°C 31.4°F-0.3°C 66% 4.3 mph NNE6.9 kmh NNE 6.0 mph9.7 kmh 30.33 in1027.1 mb 0.00 in0.0 mm 0.00 in/hr0.0 mm/hr 0.00 in0.0 mm
02:20 AM 42.3°F5.7°C 31.3°F-0.4°C 65% 4.2 mph NE6.8 kmh NE 6.0 mph9.7 kmh 30.32 in1026.8 mb 0.00 in0.0 mm 0.00 in/hr0.0 mm/hr 0.00 in0.0 mm
02:10 AM 42.6°F5.9°C 31.6°F-0.2°C 65% 3.8 mph NE6.1 kmh NE 6.0 mph9.7 kmh 30.32 in1026.8 mb 0.00 in0.0 mm 0.00 in/hr0.0 mm/hr 0.00 in0.0 mm
02:00 AM 42.9°F6.1°C 31.6°F-0.2°C 64% 3.1 mph NNE5.0 kmh NNE 6.0 mph9.7 kmh 30.32 in1026.8 mb 0.00 in0.0 mm 0.00 in/hr0.0 mm/hr 0.00 in0.0 mm
01:50 AM 43.2°F6.2°C 31.5°F-0.3°C 63% 5.6 mph NNE9.0 kmh NNE 6.0 mph9.7 kmh 30.32 in1026.8 mb 0.00 in0.0 mm 0.00 in/hr0.0 mm/hr 0.00 in0.0 mm
01:40 AM 43.6°F6.4°C 31.4°F-0.3°C 62% 4.5 mph NE7.2 kmh NE 8.0 mph12.9 kmh 30.33 in1027.1 mb 0.00 in0.0 mm 0.00 in/hr0.0 mm/hr 0.00 in0.0 mm
01:30 AM 43.9°F6.6°C 31.7°F-0.2°C 62% 4.3 mph NNE6.9 kmh NNE 6.0 mph9.7 kmh 30.32 in1026.8 mb 0.00 in0.0 mm 0.00 in/hr0.0 mm/hr 0.00 in0.0 mm
01:20 AM 44.1°F6.7°C 31.5°F-0.3°C 61% 5.2 mph NNE8.4 kmh NNE 7.0 mph11.3 kmh 30.32 in1026.8 mb 0.00 in0.0 mm 0.00 in/hr0.0 mm/hr 0.00 in0.0 mm
01:10 AM 44.5°F6.9°C 31.8°F-0.1°C 61% 4.1 mph NNE6.6 kmh NNE 8.0 mph12.9 kmh 30.32 in1026.8 mb 0.00 in0.0 mm 0.00 in/hr0.0 mm/hr 0.00 in0.0 mm
01:00 AM 44.8°F7.1°C 31.7°F-0.2°C 60% 6.9 mph NNE11.1 kmh NNE 9.0 mph14.5 kmh 30.32 in1026.8 mb 0.00 in0.0 mm 0.00 in/hr0.0 mm/hr 0.00 in0.0 mm
12:50 AM 45.1°F7.3°C 32.0°F0.0°C 60% 5.4 mph N8.7 kmh N 8.0 mph12.9 kmh 30.32 in1026.8 mb 0.00 in0.0 mm 0.00 in/hr0.0 mm/hr 0.00 in0.0 mm
12:40 AM 45.4°F7.4°C 32.3°F0.2°C 60% 6.6 mph NNE10.6 kmh NNE 9.0 mph14.5 kmh 30.32 in1026.8 mb 0.00 in0.0 mm 0.00 in/hr0.0 mm/hr 0.00 in0.0 mm
12:30 AM 45.6°F7.6°C 32.1°F0.1°C 59% 5.3 mph NE8.5 kmh NE 9.0 mph14.5 kmh 30.32 in1026.8 mb 0.00 in0.0 mm 0.00 in/hr0.0 mm/hr 0.00 in0.0 mm
12:20 AM 45.9°F7.7°C 32.4°F0.2°C 59% 5.0 mph NE8.0 kmh NE 9.0 mph14.5 kmh 30.32 in1026.8 mb 0.00 in0.0 mm 0.00 in/hr0.0 mm/hr 0.00 in0.0 mm
12:10 AM 46.3°F7.9°C 32.3°F0.2°C 58% 4.7 mph NNE7.6 kmh NNE 8.0 mph12.9 kmh 30.32 in1026.8 mb 0.00 in0.0 mm 0.00 in/hr0.0 mm/hr 0.00 in0.0 mm
12:00 AM 46.7°F8.2°C 32.3°F0.2°C 57% 5.5 mph NNE8.9 kmh NNE 8.0 mph12.9 kmh 30.33 in1027.1 mb 0.00 in0.0 mm 0.00 in/hr0.0 mm/hr 0.00 in0.0 mm